sensor_id;sensor_type;location;lat;lon;timestamp;P1;durP1;ratioP1;P2;durP2;ratioP2
43070;SDS011;36278;47.952;21.714;2023-02-21T00:04:47;16.30;;;10.20;;
43070;SDS011;36278;47.952;21.714;2023-02-21T00:07:32;17.03;;;12.50;;
43070;SDS011;36278;47.952;21.714;2023-02-21T00:10:16;17.03;;;11.20;;
43070;SDS011;36278;47.952;21.714;2023-02-21T00:13:00;18.10;;;11.17;;
43070;SDS011;36278;47.952;21.714;2023-02-21T00:15:44;17.50;;;11.17;;
43070;SDS011;36278;47.952;21.714;2023-02-21T00:18:32;21.97;;;12.07;;
43070;SDS011;36278;47.952;21.714;2023-02-21T00:21:17;16.43;;;11.17;;
43070;SDS011;36278;47.952;21.714;2023-02-21T00:24:01;17.53;;;11.97;;
43070;SDS011;36278;47.952;21.714;2023-02-21T00:26:45;16.50;;;11.33;;
43070;SDS011;36278;47.952;21.714;2023-02-21T00:29:28;17.50;;;11.73;;
43070;SDS011;36278;47.952;21.714;2023-02-21T00:34:56;17.85;;;11.60;;
43070;SDS011;36278;47.952;21.714;2023-02-21T00:37:40;18.83;;;12.10;;
43070;SDS011;36278;47.952;21.714;2023-02-21T00:40:24;17.73;;;12.10;;
43070;SDS011;36278;47.952;21.714;2023-02-21T00:43:08;18.00;;;11.27;;
43070;SDS011;36278;47.952;21.714;2023-02-21T00:48:36;16.57;;;12.10;;
43070;SDS011;36278;47.952;21.714;2023-02-21T00:51:19;17.80;;;11.50;;
43070;SDS011;36278;47.952;21.714;2023-02-21T00:54:04;17.53;;;12.00;;
43070;SDS011;36278;47.952;21.714;2023-02-21T00:56:48;15.40;;;11.47;;
43070;SDS011;36278;47.952;21.714;2023-02-21T00:59:32;15.93;;;11.27;;
43070;SDS011;36278;47.952;21.714;2023-02-21T01:02:16;18.23;;;11.93;;
43070;SDS011;36278;47.952;21.714;2023-02-21T01:05:00;19.83;;;11.63;;
43070;SDS011;36278;47.952;21.714;2023-02-21T01:07:44;17.00;;;11.50;;
43070;SDS011;36278;47.952;21.714;2023-02-21T01:10:28;17.57;;;11.23;;
43070;SDS011;36278;47.952;21.714;2023-02-21T01:15:55;14.18;;;10.25;;
43070;SDS011;36278;47.952;21.714;2023-02-21T01:18:39;17.73;;;11.20;;
43070;SDS011;36278;47.952;21.714;2023-02-21T01:21:23;15.47;;;11.00;;
43070;SDS011;36278;47.952;21.714;2023-02-21T01:24:08;15.87;;;11.43;;
43070;SDS011;36278;47.952;21.714;2023-02-21T01:26:55;20.40;;;11.30;;
43070;SDS011;36278;47.952;21.714;2023-02-21T01:29:39;17.70;;;9.70;;
43070;SDS011;36278;47.952;21.714;2023-02-21T01:35:06;15.10;;;10.40;;
43070;SDS011;36278;47.952;21.714;2023-02-21T01:37:50;14.97;;;10.73;;
43070;SDS011;36278;47.952;21.714;2023-02-21T01:40:38;13.63;;;9.87;;
43070;SDS011;36278;47.952;21.714;2023-02-21T01:43:23;12.57;;;10.40;;
43070;SDS011;36278;47.952;21.714;2023-02-21T01:46:13;15.23;;;10.60;;
43070;SDS011;36278;47.952;21.714;2023-02-21T01:48:59;18.97;;;10.83;;
43070;SDS011;36278;47.952;21.714;2023-02-21T01:51:47;17.33;;;10.40;;
43070;SDS011;36278;47.952;21.714;2023-02-21T01:54:32;15.30;;;10.50;;
43070;SDS011;36278;47.952;21.714;2023-02-21T01:57:20;14.43;;;10.07;;
43070;SDS011;36278;47.952;21.714;2023-02-21T02:00:06;16.10;;;10.10;;
43070;SDS011;36278;47.952;21.714;2023-02-21T02:02:57;14.93;;;10.03;;
43070;SDS011;36278;47.952;21.714;2023-02-21T02:05:45;15.77;;;10.03;;
43070;SDS011;36278;47.952;21.714;2023-02-21T02:08:34;14.50;;;10.30;;
43070;SDS011;36278;47.952;21.714;2023-02-21T02:16:40;13.67;;;9.43;;
43070;SDS011;36278;47.952;21.714;2023-02-21T02:22:10;16.63;;;9.73;;
43070;SDS011;36278;47.952;21.714;2023-02-21T02:25:08;16.30;;;9.30;;
43070;SDS011;36278;47.952;21.714;2023-02-21T02:27:43;16.93;;;7.97;;
43070;SDS011;36278;47.952;21.714;2023-02-21T02:44:05;13.37;;;8.97;;
43070;SDS011;36278;47.952;21.714;2023-02-21T02:46:38;13.10;;;7.43;;
43070;SDS011;36278;47.952;21.714;2023-02-21T02:49:09;11.00;;;7.20;;
43070;SDS011;36278;47.952;21.714;2023-02-21T02:51:40;12.03;;;7.53;;
43070;SDS011;36278;47.952;21.714;2023-02-21T02:54:06;11.43;;;7.47;;
43070;SDS011;36278;47.952;21.714;2023-02-21T02:56:31;13.93;;;8.23;;
43070;SDS011;36278;47.952;21.714;2023-02-21T02:59:00;10.47;;;7.27;;
43070;SDS011;36278;47.952;21.714;2023-02-21T03:09:46;11.60;;;6.17;;
43070;SDS011;36278;47.952;21.714;2023-02-21T03:15:28;12.03;;;7.07;;
43070;SDS011;36278;47.952;21.714;2023-02-21T03:20:55;11.37;;;6.67;;
43070;SDS011;36278;47.952;21.714;2023-02-21T03:23:23;14.53;;;7.83;;
43070;SDS011;36278;47.952;21.714;2023-02-21T03:25:52;14.33;;;7.13;;
43070;SDS011;36278;47.952;21.714;2023-02-21T03:28:22;11.90;;;7.13;;
43070;SDS011;36278;47.952;21.714;2023-02-21T03:30:50;11.10;;;7.63;;
43070;SDS011;36278;47.952;21.714;2023-02-21T03:33:18;12.10;;;7.43;;
43070;SDS011;36278;47.952;21.714;2023-02-21T03:35:44;13.67;;;7.30;;
43070;SDS011;36278;47.952;21.714;2023-02-21T03:38:10;13.07;;;7.50;;
43070;SDS011;36278;47.952;21.714;2023-02-21T03:40:35;12.87;;;7.70;;
43070;SDS011;36278;47.952;21.714;2023-02-21T03:43:02;11.87;;;7.60;;
43070;SDS011;36278;47.952;21.714;2023-02-21T03:45:31;13.03;;;7.27;;
43070;SDS011;36278;47.952;21.714;2023-02-21T03:47:57;11.10;;;6.53;;
43070;SDS011;36278;47.952;21.714;2023-02-21T03:50:22;10.23;;;6.73;;
43070;SDS011;36278;47.952;21.714;2023-02-21T03:52:48;11.27;;;5.60;;
43070;SDS011;36278;47.952;21.714;2023-02-21T03:55:13;8.37;;;5.37;;
43070;SDS011;36278;47.952;21.714;2023-02-21T03:57:39;7.10;;;4.80;;
43070;SDS011;36278;47.952;21.714;2023-02-21T04:00:04;7.07;;;5.20;;
43070;SDS011;36278;47.952;21.714;2023-02-21T04:02:30;11.17;;;5.40;;
43070;SDS011;36278;47.952;21.714;2023-02-21T04:04:55;10.70;;;5.13;;
43070;SDS011;36278;47.952;21.714;2023-02-21T04:07:21;6.30;;;4.50;;
43070;SDS011;36278;47.952;21.714;2023-02-21T04:09:47;8.37;;;4.63;;
43070;SDS011;36278;47.952;21.714;2023-02-21T04:12:13;6.70;;;4.40;;
43070;SDS011;36278;47.952;21.714;2023-02-21T04:14:38;7.60;;;4.27;;
43070;SDS011;36278;47.952;21.714;2023-02-21T04:17:04;7.53;;;4.03;;
43070;SDS011;36278;47.952;21.714;2023-02-21T04:19:30;9.73;;;4.23;;
43070;SDS011;36278;47.952;21.714;2023-02-21T04:21:55;14.30;;;5.97;;
43070;SDS011;36278;47.952;21.714;2023-02-21T04:24:21;6.80;;;4.37;;
43070;SDS011;36278;47.952;21.714;2023-02-21T04:26:47;10.27;;;4.70;;
43070;SDS011;36278;47.952;21.714;2023-02-21T04:29:12;8.53;;;4.13;;
43070;SDS011;36278;47.952;21.714;2023-02-21T04:31:38;8.63;;;4.20;;
43070;SDS011;36278;47.952;21.714;2023-02-21T04:34:03;8.43;;;4.50;;
43070;SDS011;36278;47.952;21.714;2023-02-21T04:36:29;9.73;;;5.07;;
43070;SDS011;36278;47.952;21.714;2023-02-21T04:38:55;10.67;;;5.33;;
43070;SDS011;36278;47.952;21.714;2023-02-21T04:41:20;12.00;;;5.63;;
43070;SDS011;36278;47.952;21.714;2023-02-21T04:43:46;14.77;;;5.97;;
43070;SDS011;36278;47.952;21.714;2023-02-21T04:46:12;8.30;;;5.37;;
43070;SDS011;36278;47.952;21.714;2023-02-21T04:48:43;11.87;;;6.07;;
43070;SDS011;36278;47.952;21.714;2023-02-21T04:51:10;9.93;;;5.77;;
43070;SDS011;36278;47.952;21.714;2023-02-21T04:53:36;9.70;;;5.67;;
43070;SDS011;36278;47.952;21.714;2023-02-21T04:56:02;10.20;;;5.73;;
43070;SDS011;36278;47.952;21.714;2023-02-21T04:58:27;10.77;;;5.43;;
43070;SDS011;36278;47.952;21.714;2023-02-21T05:00:53;9.23;;;5.43;;
43070;SDS011;36278;47.952;21.714;2023-02-21T05:03:18;9.93;;;6.10;;
43070;SDS011;36278;47.952;21.714;2023-02-21T05:05:44;8.03;;;5.10;;
43070;SDS011;36278;47.952;21.714;2023-02-21T05:08:09;6.83;;;4.70;;
43070;SDS011;36278;47.952;21.714;2023-02-21T05:10:35;6.10;;;3.47;;
43070;SDS011;36278;47.952;21.714;2023-02-21T05:13:00;5.97;;;3.87;;
43070;SDS011;36278;47.952;21.714;2023-02-21T05:15:26;5.87;;;3.30;;
43070;SDS011;36278;47.952;21.714;2023-02-21T05:17:51;6.70;;;4.07;;
43070;SDS011;36278;47.952;21.714;2023-02-21T05:20:16;7.87;;;4.47;;
43070;SDS011;36278;47.952;21.714;2023-02-21T05:22:42;9.70;;;5.00;;
43070;SDS011;36278;47.952;21.714;2023-02-21T05:25:17;13.00;;;6.13;;
43070;SDS011;36278;47.952;21.714;2023-02-21T05:27:45;10.07;;;5.23;;
43070;SDS011;36278;47.952;21.714;2023-02-21T05:30:13;7.57;;;4.70;;
43070;SDS011;36278;47.952;21.714;2023-02-21T05:32:39;8.43;;;5.30;;
43070;SDS011;36278;47.952;21.714;2023-02-21T05:35:05;9.27;;;4.93;;
43070;SDS011;36278;47.952;21.714;2023-02-21T05:37:32;8.60;;;4.83;;
43070;SDS011;36278;47.952;21.714;2023-02-21T05:39:57;5.97;;;4.60;;
43070;SDS011;36278;47.952;21.714;2023-02-21T05:42:22;7.03;;;4.47;;
43070;SDS011;36278;47.952;21.714;2023-02-21T05:44:48;7.23;;;4.27;;
43070;SDS011;36278;47.952;21.714;2023-02-21T05:47:14;7.10;;;4.57;;
43070;SDS011;36278;47.952;21.714;2023-02-21T05:49:39;8.03;;;5.00;;
43070;SDS011;36278;47.952;21.714;2023-02-21T05:52:06;10.33;;;5.00;;
43070;SDS011;36278;47.952;21.714;2023-02-21T05:54:33;11.23;;;4.47;;
43070;SDS011;36278;47.952;21.714;2023-02-21T05:56:58;9.37;;;5.00;;
43070;SDS011;36278;47.952;21.714;2023-02-21T05:59:24;6.57;;;4.30;;
43070;SDS011;36278;47.952;21.714;2023-02-21T06:01:50;7.83;;;4.87;;
43070;SDS011;36278;47.952;21.714;2023-02-21T06:04:15;8.03;;;4.40;;
43070;SDS011;36278;47.952;21.714;2023-02-21T06:06:41;9.93;;;4.70;;
43070;SDS011;36278;47.952;21.714;2023-02-21T06:09:07;9.53;;;4.53;;
43070;SDS011;36278;47.952;21.714;2023-02-21T06:11:34;8.97;;;4.87;;
43070;SDS011;36278;47.952;21.714;2023-02-21T06:14:02;10.07;;;4.20;;
43070;SDS011;36278;47.952;21.714;2023-02-21T06:16:33;7.80;;;4.20;;
43070;SDS011;36278;47.952;21.714;2023-02-21T06:19:00;7.73;;;4.90;;
43070;SDS011;36278;47.952;21.714;2023-02-21T06:21:27;7.73;;;4.77;;
43070;SDS011;36278;47.952;21.714;2023-02-21T06:23:52;8.07;;;4.80;;
43070;SDS011;36278;47.952;21.714;2023-02-21T06:26:18;9.60;;;5.53;;
43070;SDS011;36278;47.952;21.714;2023-02-21T06:28:45;8.87;;;3.73;;
43070;SDS011;36278;47.952;21.714;2023-02-21T06:31:11;9.27;;;6.10;;
43070;SDS011;36278;47.952;21.714;2023-02-21T06:33:37;9.80;;;4.67;;
43070;SDS011;36278;47.952;21.714;2023-02-21T06:36:03;6.27;;;3.93;;
43070;SDS011;36278;47.952;21.714;2023-02-21T06:38:34;8.00;;;4.50;;
43070;SDS011;36278;47.952;21.714;2023-02-21T06:41:00;8.07;;;4.43;;
43070;SDS011;36278;47.952;21.714;2023-02-21T06:43:29;7.53;;;4.00;;
43070;SDS011;36278;47.952;21.714;2023-02-21T06:45:55;5.73;;;3.50;;
43070;SDS011;36278;47.952;21.714;2023-02-21T06:48:20;9.67;;;3.90;;
43070;SDS011;36278;47.952;21.714;2023-02-21T06:50:45;6.13;;;3.73;;
43070;SDS011;36278;47.952;21.714;2023-02-21T06:53:11;8.07;;;3.73;;
43070;SDS011;36278;47.952;21.714;2023-02-21T06:55:36;7.63;;;3.80;;
43070;SDS011;36278;47.952;21.714;2023-02-21T06:58:02;5.67;;;3.80;;
43070;SDS011;36278;47.952;21.714;2023-02-21T07:00:27;8.13;;;3.60;;
43070;SDS011;36278;47.952;21.714;2023-02-21T07:02:53;9.90;;;3.80;;
43070;SDS011;36278;47.952;21.714;2023-02-21T07:05:18;10.80;;;4.00;;
43070;SDS011;36278;47.952;21.714;2023-02-21T07:07:44;10.10;;;4.03;;
43070;SDS011;36278;47.952;21.714;2023-02-21T07:10:10;7.20;;;3.97;;
43070;SDS011;36278;47.952;21.714;2023-02-21T07:12:37;9.60;;;4.77;;
43070;SDS011;36278;47.952;21.714;2023-02-21T07:15:03;7.53;;;3.63;;
43070;SDS011;36278;47.952;21.714;2023-02-21T07:17:29;6.20;;;3.70;;
43070;SDS011;36278;47.952;21.714;2023-02-21T07:19:55;6.63;;;3.47;;
43070;SDS011;36278;47.952;21.714;2023-02-21T07:22:22;6.73;;;3.40;;
43070;SDS011;36278;47.952;21.714;2023-02-21T07:24:51;5.80;;;2.90;;
43070;SDS011;36278;47.952;21.714;2023-02-21T07:27:18;8.33;;;3.07;;
43070;SDS011;36278;47.952;21.714;2023-02-21T07:29:45;5.47;;;3.00;;
43070;SDS011;36278;47.952;21.714;2023-02-21T07:32:12;5.93;;;2.93;;
43070;SDS011;36278;47.952;21.714;2023-02-21T07:34:38;6.03;;;2.93;;
43070;SDS011;36278;47.952;21.714;2023-02-21T07:37:03;7.00;;;2.83;;
43070;SDS011;36278;47.952;21.714;2023-02-21T07:39:29;6.07;;;2.77;;
43070;SDS011;36278;47.952;21.714;2023-02-21T07:41:54;5.10;;;2.77;;
43070;SDS011;36278;47.952;21.714;2023-02-21T07:44:20;4.73;;;3.20;;
43070;SDS011;36278;47.952;21.714;2023-02-21T07:46:45;6.80;;;3.07;;
43070;SDS011;36278;47.952;21.714;2023-02-21T07:49:12;7.37;;;2.80;;
43070;SDS011;36278;47.952;21.714;2023-02-21T07:51:37;7.97;;;2.93;;
43070;SDS011;36278;47.952;21.714;2023-02-21T07:54:04;6.27;;;2.77;;
43070;SDS011;36278;47.952;21.714;2023-02-21T07:56:30;7.27;;;2.93;;
43070;SDS011;36278;47.952;21.714;2023-02-21T07:58:58;4.87;;;2.97;;
43070;SDS011;36278;47.952;21.714;2023-02-21T08:01:25;5.57;;;2.90;;
43070;SDS011;36278;47.952;21.714;2023-02-21T08:03:53;5.73;;;2.83;;
43070;SDS011;36278;47.952;21.714;2023-02-21T08:06:21;6.80;;;2.90;;
43070;SDS011;36278;47.952;21.714;2023-02-21T08:08:48;6.27;;;3.00;;
43070;SDS011;36278;47.952;21.714;2023-02-21T08:11:15;6.13;;;2.73;;
43070;SDS011;36278;47.952;21.714;2023-02-21T08:13:42;4.83;;;2.70;;
43070;SDS011;36278;47.952;21.714;2023-02-21T08:16:09;5.10;;;2.83;;
43070;SDS011;36278;47.952;21.714;2023-02-21T08:18:35;6.03;;;2.87;;
43070;SDS011;36278;47.952;21.714;2023-02-21T08:21:01;7.17;;;2.60;;
43070;SDS011;36278;47.952;21.714;2023-02-21T08:23:29;9.27;;;2.90;;
43070;SDS011;36278;47.952;21.714;2023-02-21T08:25:55;6.50;;;3.00;;
43070;SDS011;36278;47.952;21.714;2023-02-21T08:28:21;5.87;;;2.83;;
43070;SDS011;36278;47.952;21.714;2023-02-21T08:30:49;8.00;;;2.63;;
43070;SDS011;36278;47.952;21.714;2023-02-21T08:33:14;7.17;;;2.50;;
43070;SDS011;36278;47.952;21.714;2023-02-21T08:35:40;6.73;;;2.70;;
43070;SDS011;36278;47.952;21.714;2023-02-21T08:38:05;6.10;;;2.80;;
43070;SDS011;36278;47.952;21.714;2023-02-21T08:40:32;6.30;;;2.43;;
43070;SDS011;36278;47.952;21.714;2023-02-21T08:42:58;4.63;;;2.00;;
43070;SDS011;36278;47.952;21.714;2023-02-21T08:45:27;5.17;;;3.07;;
43070;SDS011;36278;47.952;21.714;2023-02-21T08:47:53;4.17;;;2.03;;
43070;SDS011;36278;47.952;21.714;2023-02-21T08:50:20;5.03;;;2.40;;
43070;SDS011;36278;47.952;21.714;2023-02-21T08:52:47;4.13;;;2.47;;
43070;SDS011;36278;47.952;21.714;2023-02-21T08:55:14;3.03;;;2.03;;
43070;SDS011;36278;47.952;21.714;2023-02-21T08:57:40;6.17;;;2.87;;
43070;SDS011;36278;47.952;21.714;2023-02-21T09:00:05;3.90;;;2.50;;
43070;SDS011;36278;47.952;21.714;2023-02-21T09:02:35;6.73;;;2.33;;
43070;SDS011;36278;47.952;21.714;2023-02-21T09:05:24;5.37;;;2.10;;
43070;SDS011;36278;47.952;21.714;2023-02-21T09:07:52;6.67;;;2.30;;
43070;SDS011;36278;47.952;21.714;2023-02-21T09:10:22;3.43;;;2.13;;
43070;SDS011;36278;47.952;21.714;2023-02-21T09:12:49;4.07;;;2.20;;
43070;SDS011;36278;47.952;21.714;2023-02-21T09:15:14;5.67;;;2.23;;
43070;SDS011;36278;47.952;21.714;2023-02-21T09:17:41;5.77;;;2.20;;
43070;SDS011;36278;47.952;21.714;2023-02-21T09:20:07;4.67;;;2.47;;
43070;SDS011;36278;47.952;21.714;2023-02-21T09:22:34;3.70;;;2.30;;
43070;SDS011;36278;47.952;21.714;2023-02-21T09:25:00;7.77;;;2.63;;
43070;SDS011;36278;47.952;21.714;2023-02-21T09:27:26;5.33;;;2.63;;
43070;SDS011;36278;47.952;21.714;2023-02-21T09:30:02;7.27;;;2.27;;
43070;SDS011;36278;47.952;21.714;2023-02-21T09:32:32;5.37;;;2.50;;
43070;SDS011;36278;47.952;21.714;2023-02-21T09:34:57;5.77;;;2.50;;
43070;SDS011;36278;47.952;21.714;2023-02-21T09:37:23;5.10;;;2.23;;
43070;SDS011;36278;47.952;21.714;2023-02-21T09:39:50;4.10;;;2.33;;
43070;SDS011;36278;47.952;21.714;2023-02-21T09:42:16;4.10;;;2.67;;
43070;SDS011;36278;47.952;21.714;2023-02-21T09:44:43;5.50;;;2.60;;
43070;SDS011;36278;47.952;21.714;2023-02-21T09:47:12;10.13;;;3.20;;
43070;SDS011;36278;47.952;21.714;2023-02-21T09:49:46;4.20;;;2.33;;
43070;SDS011;36278;47.952;21.714;2023-02-21T09:52:21;7.13;;;2.50;;
43070;SDS011;36278;47.952;21.714;2023-02-21T09:54:55;4.77;;;2.20;;
43070;SDS011;36278;47.952;21.714;2023-02-21T09:57:24;3.60;;;2.20;;
43070;SDS011;36278;47.952;21.714;2023-02-21T09:59:49;4.47;;;2.77;;
43070;SDS011;36278;47.952;21.714;2023-02-21T10:02:19;7.47;;;2.97;;
43070;SDS011;36278;47.952;21.714;2023-02-21T10:08:03;3.87;;;2.40;;
43070;SDS011;36278;47.952;21.714;2023-02-21T10:10:42;4.53;;;2.20;;
43070;SDS011;36278;47.952;21.714;2023-02-21T10:16:15;2.63;;;1.87;;
43070;SDS011;36278;47.952;21.714;2023-02-21T10:21:41;4.30;;;1.50;;
43070;SDS011;36278;47.952;21.714;2023-02-21T10:24:15;7.47;;;1.90;;
43070;SDS011;36278;47.952;21.714;2023-02-21T10:26:53;3.63;;;2.00;;
43070;SDS011;36278;47.952;21.714;2023-02-21T10:29:26;3.70;;;1.60;;
43070;SDS011;36278;47.952;21.714;2023-02-21T10:32:04;2.80;;;1.60;;
43070;SDS011;36278;47.952;21.714;2023-02-21T10:34:31;1.73;;;1.27;;
43070;SDS011;36278;47.952;21.714;2023-02-21T10:37:32;3.23;;;1.97;;
43070;SDS011;36278;47.952;21.714;2023-02-21T10:45:49;3.23;;;1.63;;
43070;SDS011;36278;47.952;21.714;2023-02-21T10:48:23;7.10;;;2.77;;
43070;SDS011;36278;47.952;21.714;2023-02-21T10:50:53;25.80;;;15.13;;
43070;SDS011;36278;47.952;21.714;2023-02-21T10:53:37;16.13;;;9.43;;
43070;SDS011;36278;47.952;21.714;2023-02-21T11:04:01;5.57;;;2.97;;
43070;SDS011;36278;47.952;21.714;2023-02-21T11:06:32;10.03;;;3.87;;
43070;SDS011;36278;47.952;21.714;2023-02-21T11:09:01;6.53;;;3.10;;
43070;SDS011;36278;47.952;21.714;2023-02-21T11:11:47;7.23;;;3.33;;
43070;SDS011;36278;47.952;21.714;2023-02-21T11:16:41;8.73;;;5.13;;
43070;SDS011;36278;47.952;21.714;2023-02-21T11:19:06;7.03;;;4.63;;
43070;SDS011;36278;47.952;21.714;2023-02-21T11:21:36;12.00;;;4.67;;
43070;SDS011;36278;47.952;21.714;2023-02-21T11:24:03;9.43;;;6.10;;
43070;SDS011;36278;47.952;21.714;2023-02-21T11:26:34;6.83;;;3.43;;
43070;SDS011;36278;47.952;21.714;2023-02-21T11:29:16;4.00;;;1.87;;
43070;SDS011;36278;47.952;21.714;2023-02-21T11:31:48;3.50;;;1.67;;
43070;SDS011;36278;47.952;21.714;2023-02-21T11:34:16;8.27;;;3.80;;
43070;SDS011;36278;47.952;21.714;2023-02-21T11:36:46;9.13;;;5.43;;
43070;SDS011;36278;47.952;21.714;2023-02-21T11:39:23;5.57;;;1.93;;
43070;SDS011;36278;47.952;21.714;2023-02-21T11:41:54;6.80;;;1.80;;
43070;SDS011;36278;47.952;21.714;2023-02-21T11:50:48;7.10;;;3.10;;
43070;SDS011;36278;47.952;21.714;2023-02-21T11:53:02;7.83;;;3.83;;
43070;SDS011;36278;47.952;21.714;2023-02-21T11:55:36;3.70;;;2.40;;
43070;SDS011;36278;47.952;21.714;2023-02-21T12:01:01;4.38;;;1.40;;
43070;SDS011;36278;47.952;21.714;2023-02-21T12:03:37;3.60;;;1.57;;
43070;SDS011;36278;47.952;21.714;2023-02-21T12:09:04;3.23;;;1.67;;
43070;SDS011;36278;47.952;21.714;2023-02-21T12:23:22;2.90;;;1.40;;
43070;SDS011;36278;47.952;21.714;2023-02-21T12:35:14;2.60;;;1.40;;
43070;SDS011;36278;47.952;21.714;2023-02-21T12:40:50;4.73;;;1.90;;
43070;SDS011;36278;47.952;21.714;2023-02-21T12:43:26;2.10;;;1.40;;
43070;SDS011;36278;47.952;21.714;2023-02-21T12:51:40;4.47;;;1.90;;
43070;SDS011;36278;47.952;21.714;2023-02-21T12:54:14;3.57;;;1.33;;
43070;SDS011;36278;47.952;21.714;2023-02-21T12:56:52;3.60;;;1.60;;
43070;SDS011;36278;47.952;21.714;2023-02-21T12:59:35;2.43;;;1.47;;
43070;SDS011;36278;47.952;21.714;2023-02-21T13:02:33;6.90;;;1.50;;
43070;SDS011;36278;47.952;21.714;2023-02-21T13:05:15;4.18;;;1.63;;
43070;SDS011;36278;47.952;21.714;2023-02-21T13:11:38;1.97;;;1.40;;
43070;SDS011;36278;47.952;21.714;2023-02-21T13:13:56;5.17;;;1.40;;
43070;SDS011;36278;47.952;21.714;2023-02-21T13:16:23;2.42;;;1.35;;
43070;SDS011;36278;47.952;21.714;2023-02-21T13:18:51;3.65;;;1.75;;
43070;SDS011;36278;47.952;21.714;2023-02-21T13:29:31;2.97;;;1.20;;
43070;SDS011;36278;47.952;21.714;2023-02-21T13:31:59;3.70;;;1.15;;
43070;SDS011;36278;47.952;21.714;2023-02-21T13:34:28;3.58;;;1.60;;
43070;SDS011;36278;47.952;21.714;2023-02-21T13:36:59;2.95;;;1.30;;
43070;SDS011;36278;47.952;21.714;2023-02-21T13:39:27;2.92;;;1.23;;
43070;SDS011;36278;47.952;21.714;2023-02-21T13:42:19;2.25;;;1.13;;
43070;SDS011;36278;47.952;21.714;2023-02-21T13:44:49;2.95;;;1.30;;
43070;SDS011;36278;47.952;21.714;2023-02-21T13:47:19;3.35;;;1.60;;
43070;SDS011;36278;47.952;21.714;2023-02-21T13:57:34;5.18;;;1.30;;
43070;SDS011;36278;47.952;21.714;2023-02-21T14:03:31;2.22;;;1.20;;
43070;SDS011;36278;47.952;21.714;2023-02-21T14:16:21;1.45;;;1.20;;
43070;SDS011;36278;47.952;21.714;2023-02-21T14:31:48;5.57;;;1.27;;
43070;SDS011;36278;47.952;21.714;2023-02-21T14:34:19;2.03;;;1.00;;
43070;SDS011;36278;47.952;21.714;2023-02-21T14:39:53;3.27;;;1.80;;
43070;SDS011;36278;47.952;21.714;2023-02-21T14:50:08;5.03;;;2.50;;
43070;SDS011;36278;47.952;21.714;2023-02-21T14:55:14;1.07;;;0.87;;
43070;SDS011;36278;47.952;21.714;2023-02-21T14:58:12;5.90;;;0.80;;
43070;SDS011;36278;47.952;21.714;2023-02-21T15:03:54;1.70;;;1.00;;
43070;SDS011;36278;47.952;21.714;2023-02-21T15:06:27;2.10;;;1.63;;
43070;SDS011;36278;47.952;21.714;2023-02-21T15:08:54;3.20;;;1.33;;
43070;SDS011;36278;47.952;21.714;2023-02-21T15:11:28;2.53;;;1.50;;
43070;SDS011;36278;47.952;21.714;2023-02-21T15:14:10;3.88;;;1.45;;
43070;SDS011;36278;47.952;21.714;2023-02-21T15:16:50;2.07;;;1.33;;
43070;SDS011;36278;47.952;21.714;2023-02-21T15:24:37;6.37;;;2.87;;
43070;SDS011;36278;47.952;21.714;2023-02-21T15:27:12;4.80;;;1.52;;
43070;SDS011;36278;47.952;21.714;2023-02-21T15:29:44;3.27;;;2.10;;
43070;SDS011;36278;47.952;21.714;2023-02-21T15:32:12;4.77;;;2.30;;
43070;SDS011;36278;47.952;21.714;2023-02-21T15:34:40;3.47;;;1.63;;
43070;SDS011;36278;47.952;21.714;2023-02-21T15:37:20;2.03;;;1.13;;
43070;SDS011;36278;47.952;21.714;2023-02-21T15:39:55;2.87;;;1.50;;
43070;SDS011;36278;47.952;21.714;2023-02-21T15:42:23;1.70;;;1.50;;
43070;SDS011;36278;47.952;21.714;2023-02-21T15:45:01;2.37;;;1.40;;
43070;SDS011;36278;47.952;21.714;2023-02-21T15:47:31;6.30;;;1.37;;
43070;SDS011;36278;47.952;21.714;2023-02-21T15:50:04;2.77;;;1.53;;
43070;SDS011;36278;47.952;21.714;2023-02-21T15:52:39;1.60;;;1.20;;
43070;SDS011;36278;47.952;21.714;2023-02-21T16:00:18;3.37;;;1.30;;
43070;SDS011;36278;47.952;21.714;2023-02-21T16:02:44;2.93;;;1.23;;
43070;SDS011;36278;47.952;21.714;2023-02-21T16:05:29;3.10;;;1.40;;
43070;SDS011;36278;47.952;21.714;2023-02-21T16:08:01;3.27;;;1.57;;
43070;SDS011;36278;47.952;21.714;2023-02-21T16:10:28;2.23;;;1.40;;
43070;SDS011;36278;47.952;21.714;2023-02-21T16:12:58;3.00;;;1.57;;
43070;SDS011;36278;47.952;21.714;2023-02-21T16:15:26;3.43;;;1.90;;
43070;SDS011;36278;47.952;21.714;2023-02-21T16:18:07;2.97;;;1.87;;
43070;SDS011;36278;47.952;21.714;2023-02-21T16:20:36;3.57;;;2.13;;
43070;SDS011;36278;47.952;21.714;2023-02-21T16:23:25;2.60;;;1.80;;
43070;SDS011;36278;47.952;21.714;2023-02-21T16:28:23;5.23;;;2.27;;
43070;SDS011;36278;47.952;21.714;2023-02-21T16:30:49;4.47;;;2.03;;
43070;SDS011;36278;47.952;21.714;2023-02-21T16:33:14;5.50;;;1.80;;
43070;SDS011;36278;47.952;21.714;2023-02-21T16:35:40;3.33;;;1.97;;
43070;SDS011;36278;47.952;21.714;2023-02-21T16:38:08;4.67;;;2.00;;
43070;SDS011;36278;47.952;21.714;2023-02-21T16:40:38;4.75;;;2.08;;
43070;SDS011;36278;47.952;21.714;2023-02-21T16:43:04;5.03;;;1.90;;
43070;SDS011;36278;47.952;21.714;2023-02-21T16:45:30;5.00;;;2.40;;
43070;SDS011;36278;47.952;21.714;2023-02-21T16:48:03;4.30;;;1.83;;
43070;SDS011;36278;47.952;21.714;2023-02-21T16:50:31;4.00;;;1.83;;
43070;SDS011;36278;47.952;21.714;2023-02-21T16:53:04;4.53;;;2.43;;
43070;SDS011;36278;47.952;21.714;2023-02-21T16:55:30;4.43;;;1.90;;
43070;SDS011;36278;47.952;21.714;2023-02-21T16:57:57;2.60;;;1.77;;
43070;SDS011;36278;47.952;21.714;2023-02-21T17:00:25;5.47;;;2.10;;
43070;SDS011;36278;47.952;21.714;2023-02-21T17:02:51;4.33;;;2.37;;
43070;SDS011;36278;47.952;21.714;2023-02-21T17:05:17;3.87;;;2.53;;
43070;SDS011;36278;47.952;21.714;2023-02-21T17:07:49;4.23;;;2.43;;
43070;SDS011;36278;47.952;21.714;2023-02-21T17:10:15;6.33;;;2.67;;
43070;SDS011;36278;47.952;21.714;2023-02-21T17:12:41;5.50;;;3.03;;
43070;SDS011;36278;47.952;21.714;2023-02-21T17:15:07;8.27;;;4.20;;
43070;SDS011;36278;47.952;21.714;2023-02-21T17:17:35;5.80;;;3.77;;
43070;SDS011;36278;47.952;21.714;2023-02-21T17:20:01;15.10;;;7.87;;
43070;SDS011;36278;47.952;21.714;2023-02-21T17:22:26;14.20;;;6.97;;
43070;SDS011;36278;47.952;21.714;2023-02-21T17:24:52;11.03;;;5.50;;
43070;SDS011;36278;47.952;21.714;2023-02-21T17:27:17;7.83;;;4.27;;
43070;SDS011;36278;47.952;21.714;2023-02-21T17:29:43;8.87;;;3.90;;
43070;SDS011;36278;47.952;21.714;2023-02-21T17:32:10;8.57;;;4.83;;
43070;SDS011;36278;47.952;21.714;2023-02-21T17:34:36;11.43;;;6.43;;
43070;SDS011;36278;47.952;21.714;2023-02-21T17:37:01;13.17;;;7.77;;
43070;SDS011;36278;47.952;21.714;2023-02-21T17:39:28;14.33;;;8.20;;
43070;SDS011;36278;47.952;21.714;2023-02-21T17:41:54;12.90;;;7.40;;
43070;SDS011;36278;47.952;21.714;2023-02-21T17:44:20;16.80;;;9.33;;
43070;SDS011;36278;47.952;21.714;2023-02-21T17:46:46;12.77;;;8.30;;
43070;SDS011;36278;47.952;21.714;2023-02-21T17:49:14;9.07;;;5.83;;
43070;SDS011;36278;47.952;21.714;2023-02-21T17:51:41;7.10;;;5.37;;
43070;SDS011;36278;47.952;21.714;2023-02-21T17:54:07;11.17;;;5.63;;
43070;SDS011;36278;47.952;21.714;2023-02-21T17:56:32;13.03;;;6.23;;
43070;SDS011;36278;47.952;21.714;2023-02-21T17:58:58;12.20;;;6.50;;
43070;SDS011;36278;47.952;21.714;2023-02-21T18:01:23;12.17;;;7.53;;
43070;SDS011;36278;47.952;21.714;2023-02-21T18:03:49;12.23;;;8.00;;